sensor_id;sensor_type;location;lat;lon;timestamp;temperature;humidity
38239;DHT22;24035;48.900;9.188;2022-08-19T00:00:30;20.90;1.00
38239;DHT22;24035;48.900;9.188;2022-08-19T00:02:55;20.90;1.00
38239;DHT22;24035;48.900;9.188;2022-08-19T00:05:22;20.80;1.00
38239;DHT22;24035;48.900;9.188;2022-08-19T00:07:49;20.90;1.00
38239;DHT22;24035;48.900;9.188;2022-08-19T00:10:17;21.00;1.00
38239;DHT22;24035;48.900;9.188;2022-08-19T00:12:43;21.00;1.00
38239;DHT22;24035;48.900;9.188;2022-08-19T00:15:12;21.00;1.00
38239;DHT22;24035;48.900;9.188;2022-08-19T00:17:40;21.00;1.00
38239;DHT22;24035;48.900;9.188;2022-08-19T00:20:08;21.00;1.00
38239;DHT22;24035;48.900;9.188;2022-08-19T00:22:34;21.00;1.00
38239;DHT22;24035;48.900;9.188;2022-08-19T00:24:59;21.00;1.00
38239;DHT22;24035;48.900;9.188;2022-08-19T00:27:25;20.90;14.80
38239;DHT22;24035;48.900;9.188;2022-08-19T00:29:51;20.80;45.40
38239;DHT22;24035;48.900;9.188;2022-08-19T00:32:17;20.90;49.50
38239;DHT22;24035;48.900;9.188;2022-08-19T00:34:42;20.90;3.80
38239;DHT22;24035;48.900;9.188;2022-08-19T00:37:09;20.90;1.00
38239;DHT22;24035;48.900;9.188;2022-08-19T00:39:34;20.90;1.00
38239;DHT22;24035;48.900;9.188;2022-08-19T00:42:00;20.90;5.30
38239;DHT22;24035;48.900;9.188;2022-08-19T00:44:28;20.90;3.20
38239;DHT22;24035;48.900;9.188;2022-08-19T00:46:56;20.90;1.00
38239;DHT22;24035;48.900;9.188;2022-08-19T00:49:32;20.80;19.40
38239;DHT22;24035;48.900;9.188;2022-08-19T00:52:08;20.80;20.40
38239;DHT22;24035;48.900;9.188;2022-08-19T00:54:36;20.80;76.30
38239;DHT22;24035;48.900;9.188;2022-08-19T00:57:06;20.80;71.60
38239;DHT22;24035;48.900;9.188;2022-08-19T00:59:35;20.80;83.30
38239;DHT22;24035;48.900;9.188;2022-08-19T01:02:02;20.80;44.50
38239;DHT22;24035;48.900;9.188;2022-08-19T01:04:28;20.80;69.80
38239;DHT22;24035;48.900;9.188;2022-08-19T01:06:55;20.80;73.70
38239;DHT22;24035;48.900;9.188;2022-08-19T01:09:21;20.80;61.30
38239;DHT22;24035;48.900;9.188;2022-08-19T01:11:47;20.80;49.10
38239;DHT22;24035;48.900;9.188;2022-08-19T01:14:13;20.80;38.30
38239;DHT22;24035;48.900;9.188;2022-08-19T01:16:40;20.80;29.30
38239;DHT22;24035;48.900;9.188;2022-08-19T01:19:16;20.80;92.40
38239;DHT22;24035;48.900;9.188;2022-08-19T01:22:06;20.80;97.80
38239;DHT22;24035;48.900;9.188;2022-08-19T01:24:33;20.80;58.80
38239;DHT22;24035;48.900;9.188;2022-08-19T01:26:59;20.80;68.20
38239;DHT22;24035;48.900;9.188;2022-08-19T01:29:25;20.80;93.20
38239;DHT22;24035;48.900;9.188;2022-08-19T01:31:51;20.70;85.30
38239;DHT22;24035;48.900;9.188;2022-08-19T01:34:19;20.70;99.90
38239;DHT22;24035;48.900;9.188;2022-08-19T01:36:46;20.70;99.90
38239;DHT22;24035;48.900;9.188;2022-08-19T01:39:21;20.70;99.90
38239;DHT22;24035;48.900;9.188;2022-08-19T01:41:47;20.70;99.90
38239;DHT22;24035;48.900;9.188;2022-08-19T01:44:14;20.50;99.90
38239;DHT22;24035;48.900;9.188;2022-08-19T01:46:40;20.60;99.90
38239;DHT22;24035;48.900;9.188;2022-08-19T01:49:06;20.50;99.90
38239;DHT22;24035;48.900;9.188;2022-08-19T01:51:33;20.50;99.90
38239;DHT22;24035;48.900;9.188;2022-08-19T01:53:59;20.40;99.90
38239;DHT22;24035;48.900;9.188;2022-08-19T01:56:25;20.40;99.90
38239;DHT22;24035;48.900;9.188;2022-08-19T01:58:57;20.40;99.90
38239;DHT22;24035;48.900;9.188;2022-08-19T02:01:23;20.40;99.90
38239;DHT22;24035;48.900;9.188;2022-08-19T02:03:49;20.40;99.90
38239;DHT22;24035;48.900;9.188;2022-08-19T02:06:15;20.40;99.90
38239;DHT22;24035;48.900;9.188;2022-08-19T02:08:42;20.40;99.90
38239;DHT22;24035;48.900;9.188;2022-08-19T02:11:19;20.40;99.90
38239;DHT22;24035;48.900;9.188;2022-08-19T02:13:45;20.40;99.90
38239;DHT22;24035;48.900;9.188;2022-08-19T02:16:10;20.30;99.90
38239;DHT22;24035;48.900;9.188;2022-08-19T02:21:11;20.30;99.90
38239;DHT22;24035;48.900;9.188;2022-08-19T02:23:38;20.30;99.90
38239;DHT22;24035;48.900;9.188;2022-08-19T02:29:25;20.30;1.00
38239;DHT22;24035;48.900;9.188;2022-08-19T02:31:51;20.30;99.90
38239;DHT22;24035;48.900;9.188;2022-08-19T02:34:17;20.20;1.00
38239;DHT22;24035;48.900;9.188;2022-08-19T02:36:43;20.20;99.90
38239;DHT22;24035;48.900;9.188;2022-08-19T02:39:09;20.20;1.00
38239;DHT22;24035;48.900;9.188;2022-08-19T02:41:35;20.20;1.00
38239;DHT22;24035;48.900;9.188;2022-08-19T02:44:03;20.20;1.00
38239;DHT22;24035;48.900;9.188;2022-08-19T02:46:31;20.20;1.00
38239;DHT22;24035;48.900;9.188;2022-08-19T02:52:19;20.10;1.00
38239;DHT22;24035;48.900;9.188;2022-08-19T02:54:45;20.10;1.00
38239;DHT22;24035;48.900;9.188;2022-08-19T03:00:22;20.00;1.00
38239;DHT22;24035;48.900;9.188;2022-08-19T03:02:49;20.00;1.00
38239;DHT22;24035;48.900;9.188;2022-08-19T03:05:15;20.00;1.00
38239;DHT22;24035;48.900;9.188;2022-08-19T03:07:41;19.90;1.00
38239;DHT22;24035;48.900;9.188;2022-08-19T03:10:07;19.90;1.00
38239;DHT22;24035;48.900;9.188;2022-08-19T03:12:36;19.80;1.00
38239;DHT22;24035;48.900;9.188;2022-08-19T03:15:06;19.70;99.90
38239;DHT22;24035;48.900;9.188;2022-08-19T03:17:33;19.60;1.00
38239;DHT22;24035;48.900;9.188;2022-08-19T03:19:59;19.40;1.00
38239;DHT22;24035;48.900;9.188;2022-08-19T03:22:25;19.30;34.40
38239;DHT22;24035;48.900;9.188;2022-08-19T03:24:51;19.10;99.90
38239;DHT22;24035;48.900;9.188;2022-08-19T03:27:16;19.00;1.00
38239;DHT22;24035;48.900;9.188;2022-08-19T03:29:43;19.00;1.00
38239;DHT22;24035;48.900;9.188;2022-08-19T03:32:09;18.90;99.90
38239;DHT22;24035;48.900;9.188;2022-08-19T03:34:37;18.90;1.00
38239;DHT22;24035;48.900;9.188;2022-08-19T03:37:06;18.80;99.90
38239;DHT22;24035;48.900;9.188;2022-08-19T03:39:32;18.90;99.90
38239;DHT22;24035;48.900;9.188;2022-08-19T03:41:58;18.90;99.90
38239;DHT22;24035;48.900;9.188;2022-08-19T03:44:29;18.80;99.90
38239;DHT22;24035;48.900;9.188;2022-08-19T03:46:57;18.80;99.90
38239;DHT22;24035;48.900;9.188;2022-08-19T03:49:28;18.80;99.90
38239;DHT22;24035;48.900;9.188;2022-08-19T03:51:56;18.80;99.90
38239;DHT22;24035;48.900;9.188;2022-08-19T03:54:24;18.90;99.90
38239;DHT22;24035;48.900;9.188;2022-08-19T03:56:52;19.00;1.00
38239;DHT22;24035;48.900;9.188;2022-08-19T03:59:28;19.10;1.00
38239;DHT22;24035;48.900;9.188;2022-08-19T04:01:55;19.10;1.00
38239;DHT22;24035;48.900;9.188;2022-08-19T04:04:22;19.10;1.00
38239;DHT22;24035;48.900;9.188;2022-08-19T04:06:48;19.20;99.90
38239;DHT22;24035;48.900;9.188;2022-08-19T04:09:14;19.20;99.90
38239;DHT22;24035;48.900;9.188;2022-08-19T04:11:46;19.20;89.00
38239;DHT22;24035;48.900;9.188;2022-08-19T04:14:15;19.20;83.30
38239;DHT22;24035;48.900;9.188;2022-08-19T04:16:42;19.20;1.00
38239;DHT22;24035;48.900;9.188;2022-08-19T04:19:09;19.20;24.60
38239;DHT22;24035;48.900;9.188;2022-08-19T04:21:35;19.20;1.00
38239;DHT22;24035;48.900;9.188;2022-08-19T04:24:02;19.30;1.00
38239;DHT22;24035;48.900;9.188;2022-08-19T04:26:31;19.30;1.00
38239;DHT22;24035;48.900;9.188;2022-08-19T04:28:58;19.30;1.00
38239;DHT22;24035;48.900;9.188;2022-08-19T04:31:26;19.30;1.00
38239;DHT22;24035;48.900;9.188;2022-08-19T04:33:54;19.30;1.00
38239;DHT22;24035;48.900;9.188;2022-08-19T04:36:25;19.30;1.00
38239;DHT22;24035;48.900;9.188;2022-08-19T04:38:54;19.30;1.00
38239;DHT22;24035;48.900;9.188;2022-08-19T04:41:20;19.40;1.00
38239;DHT22;24035;48.900;9.188;2022-08-19T04:44:05;19.40;99.90
38239;DHT22;24035;48.900;9.188;2022-08-19T04:46:31;19.50;99.90
38239;DHT22;24035;48.900;9.188;2022-08-19T04:48:58;19.50;99.90
38239;DHT22;24035;48.900;9.188;2022-08-19T04:55:02;19.50;99.90
38239;DHT22;24035;48.900;9.188;2022-08-19T04:57:28;19.50;99.90
38239;DHT22;24035;48.900;9.188;2022-08-19T04:59:56;19.50;99.90
38239;DHT22;24035;48.900;9.188;2022-08-19T05:02:22;19.50;99.90
38239;DHT22;24035;48.900;9.188;2022-08-19T05:04:58;19.50;99.90
38239;DHT22;24035;48.900;9.188;2022-08-19T05:07:25;19.50;99.90
38239;DHT22;24035;48.900;9.188;2022-08-19T05:09:50;19.60;99.90
38239;DHT22;24035;48.900;9.188;2022-08-19T05:12:17;19.60;34.80
38239;DHT22;24035;48.900;9.188;2022-08-19T05:14:43;19.60;55.80
38239;DHT22;24035;48.900;9.188;2022-08-19T05:17:10;19.70;1.00
38239;DHT22;24035;48.900;9.188;2022-08-19T05:19:35;19.70;14.50
38239;DHT22;24035;48.900;9.188;2022-08-19T05:22:19;19.60;18.60
38239;DHT22;24035;48.900;9.188;2022-08-19T05:25:02;19.70;32.20
38239;DHT22;24035;48.900;9.188;2022-08-19T05:27:28;19.70;1.00
38239;DHT22;24035;48.900;9.188;2022-08-19T05:29:54;19.70;1.00
38239;DHT22;24035;48.900;9.188;2022-08-19T05:32:19;19.70;1.00
38239;DHT22;24035;48.900;9.188;2022-08-19T05:34:47;19.70;1.00
38239;DHT22;24035;48.900;9.188;2022-08-19T05:37:12;19.70;1.00
38239;DHT22;24035;48.900;9.188;2022-08-19T05:39:38;19.80;1.00
38239;DHT22;24035;48.900;9.188;2022-08-19T05:42:07;19.90;1.00
38239;DHT22;24035;48.900;9.188;2022-08-19T05:44:36;20.00;1.00
38239;DHT22;24035;48.900;9.188;2022-08-19T05:47:04;20.00;1.00
38239;DHT22;24035;48.900;9.188;2022-08-19T05:49:30;20.00;1.00
38239;DHT22;24035;48.900;9.188;2022-08-19T05:51:57;20.00;1.00
38239;DHT22;24035;48.900;9.188;2022-08-19T05:54:24;20.00;1.00
38239;DHT22;24035;48.900;9.188;2022-08-19T05:56:52;20.00;1.00
38239;DHT22;24035;48.900;9.188;2022-08-19T05:59:19;20.00;1.00
38239;DHT22;24035;48.900;9.188;2022-08-19T06:01:48;20.00;1.00
38239;DHT22;24035;48.900;9.188;2022-08-19T06:04:17;20.00;1.00
38239;DHT22;24035;48.900;9.188;2022-08-19T06:06:45;20.00;1.00
38239;DHT22;24035;48.900;9.188;2022-08-19T06:09:12;19.90;1.00
38239;DHT22;24035;48.900;9.188;2022-08-19T06:11:44;19.90;1.00
38239;DHT22;24035;48.900;9.188;2022-08-19T06:14:16;19.80;1.00
38239;DHT22;24035;48.900;9.188;2022-08-19T06:16:43;19.90;1.00
38239;DHT22;24035;48.900;9.188;2022-08-19T06:19:12;19.80;1.00
38239;DHT22;24035;48.900;9.188;2022-08-19T06:21:40;19.90;1.00
38239;DHT22;24035;48.900;9.188;2022-08-19T06:24:08;19.90;1.00
38239;DHT22;24035;48.900;9.188;2022-08-19T06:26:36;20.00;1.00
38239;DHT22;24035;48.900;9.188;2022-08-19T06:29:03;20.10;1.00
38239;DHT22;24035;48.900;9.188;2022-08-19T06:31:31;20.10;1.00
38239;DHT22;24035;48.900;9.188;2022-08-19T06:33:59;20.10;1.00
38239;DHT22;24035;48.900;9.188;2022-08-19T06:36:30;20.10;1.00
38239;DHT22;24035;48.900;9.188;2022-08-19T06:39:03;20.10;1.00
38239;DHT22;24035;48.900;9.188;2022-08-19T06:41:29;20.20;1.00
38239;DHT22;24035;48.900;9.188;2022-08-19T06:43:56;20.30;1.00
38239;DHT22;24035;48.900;9.188;2022-08-19T06:46:22;20.20;1.00
38239;DHT22;24035;48.900;9.188;2022-08-19T06:48:48;20.20;1.00
38239;DHT22;24035;48.900;9.188;2022-08-19T06:51:16;20.30;1.00
38239;DHT22;24035;48.900;9.188;2022-08-19T06:53:45;20.40;99.90
38239;DHT22;24035;48.900;9.188;2022-08-19T06:56:16;20.40;1.00
38239;DHT22;24035;48.900;9.188;2022-08-19T06:58:43;20.50;99.90
38239;DHT22;24035;48.900;9.188;2022-08-19T07:01:09;20.60;99.90
38239;DHT22;24035;48.900;9.188;2022-08-19T07:03:36;20.80;99.90
38239;DHT22;24035;48.900;9.188;2022-08-19T07:06:04;20.90;99.90
38239;DHT22;24035;48.900;9.188;2022-08-19T07:08:30;20.90;99.90
38239;DHT22;24035;48.900;9.188;2022-08-19T07:10:55;20.90;99.90
38239;DHT22;24035;48.900;9.188;2022-08-19T07:13:21;20.90;99.90
38239;DHT22;24035;48.900;9.188;2022-08-19T07:15:48;20.90;99.90
38239;DHT22;24035;48.900;9.188;2022-08-19T07:18:14;20.90;99.90
38239;DHT22;24035;48.900;9.188;2022-08-19T07:20:40;20.80;99.90
38239;DHT22;24035;48.900;9.188;2022-08-19T07:23:07;20.80;99.90
38239;DHT22;24035;48.900;9.188;2022-08-19T07:25:32;20.70;99.90
38239;DHT22;24035;48.900;9.188;2022-08-19T07:27:58;20.70;99.90
38239;DHT22;24035;48.900;9.188;2022-08-19T07:30:24;20.70;99.90
38239;DHT22;24035;48.900;9.188;2022-08-19T07:32:49;20.70;99.90
38239;DHT22;24035;48.900;9.188;2022-08-19T07:35:17;20.60;99.90
38239;DHT22;24035;48.900;9.188;2022-08-19T07:37:45;20.60;99.90
38239;DHT22;24035;48.900;9.188;2022-08-19T07:40:11;20.70;99.90
38239;DHT22;24035;48.900;9.188;2022-08-19T07:42:37;20.80;99.90
38239;DHT22;24035;48.900;9.188;2022-08-19T07:45:04;20.70;99.90
38239;DHT22;24035;48.900;9.188;2022-08-19T07:47:30;20.70;99.90
38239;DHT22;24035;48.900;9.188;2022-08-19T07:49:56;20.60;99.90
38239;DHT22;24035;48.900;9.188;2022-08-19T07:52:22;20.70;99.90
38239;DHT22;24035;48.900;9.188;2022-08-19T07:54:47;20.80;99.90
38239;DHT22;24035;48.900;9.188;2022-08-19T07:57:15;20.70;99.90
38239;DHT22;24035;48.900;9.188;2022-08-19T07:59:41;20.50;99.90
38239;DHT22;24035;48.900;9.188;2022-08-19T08:02:08;20.50;99.90
38239;DHT22;24035;48.900;9.188;2022-08-19T08:04:34;20.40;1.00
38239;DHT22;24035;48.900;9.188;2022-08-19T08:07:18;20.40;1.00
38239;DHT22;24035;48.900;9.188;2022-08-19T08:10:05;20.40;1.00
38239;DHT22;24035;48.900;9.188;2022-08-19T08:12:35;20.40;1.00
38239;DHT22;24035;48.900;9.188;2022-08-19T08:15:09;20.50;99.90
38239;DHT22;24035;48.900;9.188;2022-08-19T08:17:35;20.40;1.00
38239;DHT22;24035;48.900;9.188;2022-08-19T08:20:03;20.50;1.00
38239;DHT22;24035;48.900;9.188;2022-08-19T08:22:32;20.50;99.90
38239;DHT22;24035;48.900;9.188;2022-08-19T08:25:20;20.50;99.90
38239;DHT22;24035;48.900;9.188;2022-08-19T08:27:46;20.50;99.90
38239;DHT22;24035;48.900;9.188;2022-08-19T08:30:23;20.60;99.90
38239;DHT22;24035;48.900;9.188;2022-08-19T08:32:49;20.70;99.90
38239;DHT22;24035;48.900;9.188;2022-08-19T08:35:18;20.70;99.90
38239;DHT22;24035;48.900;9.188;2022-08-19T08:37:46;20.70;99.90
38239;DHT22;24035;48.900;9.188;2022-08-19T08:43:21;20.80;99.90
38239;DHT22;24035;48.900;9.188;2022-08-19T08:48:46;21.00;99.90
38239;DHT22;24035;48.900;9.188;2022-08-19T08:51:21;21.00;99.90
38239;DHT22;24035;48.900;9.188;2022-08-19T08:53:51;21.10;99.90
38239;DHT22;24035;48.900;9.188;2022-08-19T08:56:17;21.20;99.90
38239;DHT22;24035;48.900;9.188;2022-08-19T08:58:56;21.30;99.90
38239;DHT22;24035;48.900;9.188;2022-08-19T09:01:23;21.40;99.90
38239;DHT22;24035;48.900;9.188;2022-08-19T09:03:49;21.50;99.90
38239;DHT22;24035;48.900;9.188;2022-08-19T09:06:32;21.50;76.50
38239;DHT22;24035;48.900;9.188;2022-08-19T09:09:10;21.80;45.10
38239;DHT22;24035;48.900;9.188;2022-08-19T09:17:11;22.20;1.00
38239;DHT22;24035;48.900;9.188;2022-08-19T09:19:53;22.40;1.00
38239;DHT22;24035;48.900;9.188;2022-08-19T09:22:19;22.70;1.00
38239;DHT22;24035;48.900;9.188;2022-08-19T09:24:51;22.70;1.00
38239;DHT22;24035;48.900;9.188;2022-08-19T09:27:21;22.40;1.00
38239;DHT22;24035;48.900;9.188;2022-08-19T09:29:49;22.40;1.00
38239;DHT22;24035;48.900;9.188;2022-08-19T09:32:15;22.40;1.00
38239;DHT22;24035;48.900;9.188;2022-08-19T09:34:42;22.60;1.00
38239;DHT22;24035;48.900;9.188;2022-08-19T09:37:08;22.50;1.00
38239;DHT22;24035;48.900;9.188;2022-08-19T09:39:34;22.40;1.00
38239;DHT22;24035;48.900;9.188;2022-08-19T09:42:00;22.20;1.00
38239;DHT22;24035;48.900;9.188;2022-08-19T09:44:26;22.20;1.00
38239;DHT22;24035;48.900;9.188;2022-08-19T09:46:51;22.10;1.00
38239;DHT22;24035;48.900;9.188;2022-08-19T09:49:19;22.10;1.00
38239;DHT22;24035;48.900;9.188;2022-08-19T09:51:51;22.20;1.00
38239;DHT22;24035;48.900;9.188;2022-08-19T09:54:18;22.30;1.00
38239;DHT22;24035;48.900;9.188;2022-08-19T09:56:43;22.40;1.00
38239;DHT22;24035;48.900;9.188;2022-08-19T09:59:10;22.50;1.00
38239;DHT22;24035;48.900;9.188;2022-08-19T10:01:37;22.60;1.00
38239;DHT22;24035;48.900;9.188;2022-08-19T10:04:03;22.50;1.00
38239;DHT22;24035;48.900;9.188;2022-08-19T10:06:37;22.50;1.00
38239;DHT22;24035;48.900;9.188;2022-08-19T10:09:05;22.40;1.00
38239;DHT22;24035;48.900;9.188;2022-08-19T10:11:32;22.40;1.00
38239;DHT22;24035;48.900;9.188;2022-08-19T10:13:59;22.30;1.00
38239;DHT22;24035;48.900;9.188;2022-08-19T10:16:25;22.40;1.00
38239;DHT22;24035;48.900;9.188;2022-08-19T10:18:52;22.50;1.00
38239;DHT22;24035;48.900;9.188;2022-08-19T10:21:24;22.50;1.00
38239;DHT22;24035;48.900;9.188;2022-08-19T10:23:52;22.70;1.00
38239;DHT22;24035;48.900;9.188;2022-08-19T10:26:21;22.70;1.00
38239;DHT22;24035;48.900;9.188;2022-08-19T10:28:48;22.80;1.00
38239;DHT22;24035;48.900;9.188;2022-08-19T10:31:20;22.70;1.00
38239;DHT22;24035;48.900;9.188;2022-08-19T10:33:50;22.70;1.00
38239;DHT22;24035;48.900;9.188;2022-08-19T10:36:21;22.70;1.00
38239;DHT22;24035;48.900;9.188;2022-08-19T10:38:50;22.60;1.00
38239;DHT22;24035;48.900;9.188;2022-08-19T10:41:22;22.60;1.00
38239;DHT22;24035;48.900;9.188;2022-08-19T10:43:51;22.70;1.00
38239;DHT22;24035;48.900;9.188;2022-08-19T10:46:21;22.80;1.00
38239;DHT22;24035;48.900;9.188;2022-08-19T10:48:48;23.00;1.00
38239;DHT22;24035;48.900;9.188;2022-08-19T10:51:14;23.20;1.00
38239;DHT22;24035;48.900;9.188;2022-08-19T10:54:16;23.40;99.90
38239;DHT22;24035;48.900;9.188;2022-08-19T10:56:43;23.70;99.90
38239;DHT22;24035;48.900;9.188;2022-08-19T10:59:28;23.50;99.90
38239;DHT22;24035;48.900;9.188;2022-08-19T11:01:59;23.60;99.90
38239;DHT22;24035;48.900;9.188;2022-08-19T11:04:26;23.80;99.90
38239;DHT22;24035;48.900;9.188;2022-08-19T11:06:51;24.20;99.90
38239;DHT22;24035;48.900;9.188;2022-08-19T11:09:19;24.30;99.90
38239;DHT22;24035;48.900;9.188;2022-08-19T11:11:46;24.50;99.90
38239;DHT22;24035;48.900;9.188;2022-08-19T11:14:16;24.50;99.90
38239;DHT22;24035;48.900;9.188;2022-08-19T11:16:44;24.60;99.90
38239;DHT22;24035;48.900;9.188;2022-08-19T11:19:11;24.50;99.90
38239;DHT22;24035;48.900;9.188;2022-08-19T11:21:42;24.60;99.90
38239;DHT22;24035;48.900;9.188;2022-08-19T11:24:22;24.60;99.90
38239;DHT22;24035;48.900;9.188;2022-08-19T11:26:51;24.30;99.90
38239;DHT22;24035;48.900;9.188;2022-08-19T11:29:20;24.40;99.90
38239;DHT22;24035;48.900;9.188;2022-08-19T11:31:48;24.40;99.90
38239;DHT22;24035;48.900;9.188;2022-08-19T11:34:18;24.20;99.90
38239;DHT22;24035;48.900;9.188;2022-08-19T11:36:45;23.80;99.90
38239;DHT22;24035;48.900;9.188;2022-08-19T11:39:15;23.60;99.90
38239;DHT22;24035;48.900;9.188;2022-08-19T11:41:41;23.70;99.90
38239;DHT22;24035;48.900;9.188;2022-08-19T11:44:07;23.80;99.90
38239;DHT22;24035;48.900;9.188;2022-08-19T11:46:37;23.80;99.90
38239;DHT22;24035;48.900;9.188;2022-08-19T11:49:03;23.70;99.90
38239;DHT22;24035;48.900;9.188;2022-08-19T11:51:30;23.70;99.90
38239;DHT22;24035;48.900;9.188;2022-08-19T11:53:58;23.80;99.90
38239;DHT22;24035;48.900;9.188;2022-08-19T11:56:25;23.90;99.90
38239;DHT22;24035;48.900;9.188;2022-08-19T11:58:52;24.10;99.90
38239;DHT22;24035;48.900;9.188;2022-08-19T12:01:20;24.10;99.90
38239;DHT22;24035;48.900;9.188;2022-08-19T12:03:47;24.30;99.90
38239;DHT22;24035;48.900;9.188;2022-08-19T12:06:18;24.20;99.90
38239;DHT22;24035;48.900;9.188;2022-08-19T12:08:44;24.20;99.90
38239;DHT22;24035;48.900;9.188;2022-08-19T12:11:11;24.30;99.90
38239;DHT22;24035;48.900;9.188;2022-08-19T12:13:38;24.50;99.90
38239;DHT22;24035;48.900;9.188;2022-08-19T12:16:11;24.80;99.90
38239;DHT22;24035;48.900;9.188;2022-08-19T12:18:38;24.80;99.90
38239;DHT22;24035;48.900;9.188;2022-08-19T12:21:06;24.70;99.90
38239;DHT22;24035;48.900;9.188;2022-08-19T12:23:32;24.80;99.90
38239;DHT22;24035;48.900;9.188;2022-08-19T12:25:58;24.90;99.90
38239;DHT22;24035;48.900;9.188;2022-08-19T12:28:24;24.80;99.90
38239;DHT22;24035;48.900;9.188;2022-08-19T12:30:51;24.80;99.90
38239;DHT22;24035;48.900;9.188;2022-08-19T12:33:18;24.90;79.90
38239;DHT22;24035;48.900;9.188;2022-08-19T12:35:45;24.90;86.10
38239;DHT22;24035;48.900;9.188;2022-08-19T12:38:12;24.90;59.00
38239;DHT22;24035;48.900;9.188;2022-08-19T12:40:38;24.70;64.90
38239;DHT22;24035;48.900;9.188;2022-08-19T12:43:06;24.60;72.90
38239;DHT22;24035;48.900;9.188;2022-08-19T12:45:32;24.50;65.50
38239;DHT22;24035;48.900;9.188;2022-08-19T12:47:58;24.30;73.70
38239;DHT22;24035;48.900;9.188;2022-08-19T12:50:23;24.30;80.30
38239;DHT22;24035;48.900;9.188;2022-08-19T12:52:49;24.30;87.80
38239;DHT22;24035;48.900;9.188;2022-08-19T12:55:15;24.30;97.60
38239;DHT22;24035;48.900;9.188;2022-08-19T12:57:41;24.30;98.20
38239;DHT22;24035;48.900;9.188;2022-08-19T13:00:12;24.40;78.30
38239;DHT22;24035;48.900;9.188;2022-08-19T13:02:44;24.40;44.20
38239;DHT22;24035;48.900;9.188;2022-08-19T13:05:13;24.10;46.20
38239;DHT22;24035;48.900;9.188;2022-08-19T13:07:40;24.00;65.90
38239;DHT22;24035;48.900;9.188;2022-08-19T13:10:07;24.00;78.80
38239;DHT22;24035;48.900;9.188;2022-08-19T13:12:33;24.00;62.30
38239;DHT22;24035;48.900;9.188;2022-08-19T13:14:59;24.10;71.60
38239;DHT22;24035;48.900;9.188;2022-08-19T13:17:24;24.20;69.10
38239;DHT22;24035;48.900;9.188;2022-08-19T13:19:50;24.10;64.20
38239;DHT22;24035;48.900;9.188;2022-08-19T13:22:16;24.10;73.40
38239;DHT22;24035;48.900;9.188;2022-08-19T13:24:42;24.10;77.90
38239;DHT22;24035;48.900;9.188;2022-08-19T13:27:08;24.20;80.60
38239;DHT22;24035;48.900;9.188;2022-08-19T13:29:34;24.10;94.90
38239;DHT22;24035;48.900;9.188;2022-08-19T13:32:18;24.10;99.90
38239;DHT22;24035;48.900;9.188;2022-08-19T13:35:03;24.20;99.90
38239;DHT22;24035;48.900;9.188;2022-08-19T13:37:29;24.30;99.90
38239;DHT22;24035;48.900;9.188;2022-08-19T13:42:39;24.10;99.90
38239;DHT22;24035;48.900;9.188;2022-08-19T13:45:05;24.10;99.90
38239;DHT22;24035;48.900;9.188;2022-08-19T13:47:32;24.10;99.90
38239;DHT22;24035;48.900;9.188;2022-08-19T13:50:03;24.00;99.90
38239;DHT22;24035;48.900;9.188;2022-08-19T13:52:30;24.00;99.90
38239;DHT22;24035;48.900;9.188;2022-08-19T13:54:56;24.00;99.90
38239;DHT22;24035;48.900;9.188;2022-08-19T13:57:22;23.90;99.90
38239;DHT22;24035;48.900;9.188;2022-08-19T13:59:47;23.90;99.90
38239;DHT22;24035;48.900;9.188;2022-08-19T14:02:13;23.80;1.00
38239;DHT22;24035;48.900;9.188;2022-08-19T14:04:39;23.70;1.00
38239;DHT22;24035;48.900;9.188;2022-08-19T14:07:04;23.60;1.00
38239;DHT22;24035;48.900;9.188;2022-08-19T14:09:30;23.50;1.00
38239;DHT22;24035;48.900;9.188;2022-08-19T14:11:56;23.50;1.00
38239;DHT22;24035;48.900;9.188;2022-08-19T14:14:22;23.60;1.00
38239;DHT22;24035;48.900;9.188;2022-08-19T14:16:49;23.60;1.00
38239;DHT22;24035;48.900;9.188;2022-08-19T14:19:14;23.50;1.00
38239;DHT22;24035;48.900;9.188;2022-08-19T14:21:41;23.50;19.50
38239;DHT22;24035;48.900;9.188;2022-08-19T14:24:07;23.60;1.00
38239;DHT22;24035;48.900;9.188;2022-08-19T14:26:33;23.50;91.60
38239;DHT22;24035;48.900;9.188;2022-08-19T14:28:59;23.30;99.90
38239;DHT22;24035;48.900;9.188;2022-08-19T14:31:26;23.10;99.90
38239;DHT22;24035;48.900;9.188;2022-08-19T14:33:52;22.90;99.90
38239;DHT22;24035;48.900;9.188;2022-08-19T14:36:19;22.80;1.00
38239;DHT22;24035;48.900;9.188;2022-08-19T14:38:45;22.60;1.00
38239;DHT22;24035;48.900;9.188;2022-08-19T14:41:15;22.60;1.00
38239;DHT22;24035;48.900;9.188;2022-08-19T14:43:43;22.50;1.00
38239;DHT22;24035;48.900;9.188;2022-08-19T14:46:15;22.60;1.00
38239;DHT22;24035;48.900;9.188;2022-08-19T14:48:42;22.80;1.00
38239;DHT22;24035;48.900;9.188;2022-08-19T14:51:08;23.00;1.00
38239;DHT22;24035;48.900;9.188;2022-08-19T14:53:34;23.20;1.00
38239;DHT22;24035;48.900;9.188;2022-08-19T14:56:01;23.40;99.90
38239;DHT22;24035;48.900;9.188;2022-08-19T14:58:27;23.90;97.10
38239;DHT22;24035;48.900;9.188;2022-08-19T15:00:53;24.10;5.10
38239;DHT22;24035;48.900;9.188;2022-08-19T15:03:19;24.30;1.00
38239;DHT22;24035;48.900;9.188;2022-08-19T15:05:44;24.50;1.00
38239;DHT22;24035;48.900;9.188;2022-08-19T15:08:10;24.70;1.00
38239;DHT22;24035;48.900;9.188;2022-08-19T15:10:38;24.70;1.00
38239;DHT22;24035;48.900;9.188;2022-08-19T15:13:04;24.70;1.00
38239;DHT22;24035;48.900;9.188;2022-08-19T15:15:31;24.70;1.00
38239;DHT22;24035;48.900;9.188;2022-08-19T15:17:57;24.40;1.00
38239;DHT22;24035;48.900;9.188;2022-08-19T15:20:28;24.40;1.00
38239;DHT22;24035;48.900;9.188;2022-08-19T15:22:54;24.40;1.00
38239;DHT22;24035;48.900;9.188;2022-08-19T15:25:20;24.50;1.00
38239;DHT22;24035;48.900;9.188;2022-08-19T15:27:47;24.60;1.00
38239;DHT22;24035;48.900;9.188;2022-08-19T15:30:20;24.50;1.00
38239;DHT22;24035;48.900;9.188;2022-08-19T15:32:47;24.30;1.00
38239;DHT22;24035;48.900;9.188;2022-08-19T15:35:13;24.20;15.80
38239;DHT22;24035;48.900;9.188;2022-08-19T15:37:38;24.20;9.70
38239;DHT22;24035;48.900;9.188;2022-08-19T15:40:06;24.00;40.40
38239;DHT22;24035;48.900;9.188;2022-08-19T15:42:35;24.10;1.00
38239;DHT22;24035;48.900;9.188;2022-08-19T15:45:02;24.30;1.00
38239;DHT22;24035;48.900;9.188;2022-08-19T15:47:29;24.30;1.00
38239;DHT22;24035;48.900;9.188;2022-08-19T15:49:55;24.20;1.00
38239;DHT22;24035;48.900;9.188;2022-08-19T15:52:20;24.10;1.00
38239;DHT22;24035;48.900;9.188;2022-08-19T15:54:46;24.10;1.00
38239;DHT22;24035;48.900;9.188;2022-08-19T15:57:12;24.10;1.00
38239;DHT22;24035;48.900;9.188;2022-08-19T15:59:50;24.20;1.00
38239;DHT22;24035;48.900;9.188;2022-08-19T16:02:34;24.30;1.00
38239;DHT22;24035;48.900;9.188;2022-08-19T16:05:21;24.30;1.00
38239;DHT22;24035;48.900;9.188;2022-08-19T16:08:06;24.30;1.00
38239;DHT22;24035;48.900;9.188;2022-08-19T16:10:36;24.40;1.00
38239;DHT22;24035;48.900;9.188;2022-08-19T16:13:03;24.50;1.00